Aviation Digital Data Service (ADDS)

Output produced by METARs form (1008 UTC 26 August 2016)
found at http://www.aviationweather.gov/adds/metars/
 
KDEC 260520Z 2606/2706 02005KT P6SM VCTS SCT035CB OVC080 
     TEMPO 2606/2608 3SM TSRA BR BKN025CB 
     FM261000 04004KT 4SM BR SCT012 OVC080 
     FM261500 06005KT P6SM BKN045 
     FM270100 13005KT P6SM BKN100